createdAt,value
2018-09-01T00:00:26.571Z,53
2018-09-01T00:01:16.871Z,53
2018-09-01T00:02:06.424Z,53
2018-09-01T00:02:56.700Z,53
2018-09-01T00:03:47.109Z,52.9
2018-09-01T00:04:36.595Z,53
2018-09-01T00:05:27.221Z,53
2018-09-01T00:06:17.026Z,53
2018-09-01T00:07:06.773Z,52.9
2018-09-01T00:07:56.608Z,52.9
2018-09-01T00:08:46.910Z,52.9
2018-09-01T00:09:37.496Z,52.9
2018-09-01T00:10:27.655Z,52.9
2018-09-01T00:11:18.697Z,52.9
2018-09-01T00:12:07.436Z,52.9
2018-09-01T00:31:31.880Z,52.8
2018-09-01T00:32:21.892Z,52.8
2018-09-01T00:33:11.704Z,52.8
2018-09-01T00:34:01.740Z,52.8
2018-09-01T00:34:52.120Z,52.8
2018-09-01T00:35:41.312Z,52.8
2018-09-01T00:36:31.334Z,52.8
2018-09-01T00:37:22.324Z,52.8
2018-09-01T00:38:11.798Z,52.8
2018-09-01T00:39:01.596Z,52.8
2018-09-01T00:39:52.222Z,52.8
2018-09-01T00:40:41.706Z,52.8
2018-09-01T00:41:32.846Z,52.8
2018-09-01T00:42:21.516Z,52.8
2018-09-01T00:43:12.707Z,52.8
2018-09-01T00:44:02.780Z,52.8
2018-09-01T00:44:51.721Z,52.8
2018-09-01T00:45:42.436Z,52.8
2018-09-01T00:46:32.995Z,52.8
2018-09-01T00:47:22.511Z,52.8
2018-09-01T00:48:13.352Z,52.8
2018-09-01T00:49:02.336Z,52.8
2018-09-01T00:49:53.253Z,52.8
2018-09-01T00:50:42.735Z,52.8
2018-09-01T00:51:33.098Z,52.8
2018-09-01T00:52:23.173Z,52.8
2018-09-01T00:53:13.540Z,52.8
2018-09-01T00:54:03.336Z,52.8
2018-09-01T00:54:52.628Z,52.8
2018-09-01T00:55:43.428Z,52.7
2018-09-01T00:56:33.505Z,52.8
2018-09-01T00:57:23.540Z,52.8
2018-09-01T00:58:13.134Z,52.8
2018-09-01T00:59:03.500Z,52.7
2018-09-01T00:59:53.480Z,52.7
2018-09-01T01:00:43.209Z,52.7
2018-09-01T01:01:34.165Z,52.7
2018-09-01T01:02:23.475Z,52.7
2018-09-01T01:03:14.236Z,52.7
2018-09-01T01:04:04.077Z,52.7
2018-09-01T01:04:53.850Z,52.7
2018-09-01T01:05:44.190Z,52.7
2018-09-01T01:06:33.982Z,52.7
2018-09-01T01:07:24.329Z,52.7
2018-09-01T01:08:14.656Z,52.7
2018-09-01T01:09:04.732Z,52.7
2018-09-01T01:09:54.563Z,52.6
2018-09-01T01:10:44.337Z,52.7
2018-09-01T01:11:34.652Z,52.7
2018-09-01T01:12:25.259Z,52.6
2018-09-01T01:13:14.802Z,52.6
2018-09-01T01:14:04.849Z,52.6
2018-09-01T01:14:54.897Z,52.6
2018-09-01T01:15:44.977Z,52.6
2018-09-01T01:16:35.321Z,52.6
2018-09-01T01:17:25.480Z,52.6
2018-09-01T01:18:15.143Z,52.6
2018-09-01T01:19:04.699Z,52.6
2018-09-01T01:19:55.035Z,52.6
2018-09-01T01:20:45.094Z,52.6
2018-09-01T01:21:35.154Z,52.6
2018-09-01T01:22:25.241Z,52.6
2018-09-01T01:23:15.287Z,52.6
2018-09-01T01:24:05.678Z,52.6
2018-09-01T01:24:55.969Z,52.6
2018-09-01T01:25:46.034Z,52.6
2018-09-01T01:26:36.113Z,52.6
2018-09-01T01:27:26.158Z,52.6
2018-09-01T01:28:16.243Z,52.6
2018-09-01T01:29:06.344Z,52.6
2018-09-01T01:29:55.851Z,52.6
2018-09-01T01:30:45.873Z,52.6
2018-09-01T01:31:36.464Z,52.6
2018-09-01T01:32:26.235Z,52.6
2018-09-01T01:33:16.033Z,52.6
2018-09-01T01:34:06.362Z,52.6
2018-09-01T01:34:56.470Z,52.5
2018-09-01T01:35:46.257Z,52.6
2018-09-01T01:36:36.003Z,52.6
2018-09-01T01:37:26.698Z,52.5
2018-09-01T01:38:16.741Z,52.5
2018-09-01T01:39:07.328Z,52.5
2018-09-01T01:39:56.286Z,52.5
2018-09-01T01:40:46.944Z,52.5
2018-09-01T01:41:36.709Z,52.5
2018-09-01T01:42:26.466Z,52.5
2018-09-01T01:43:16.823Z,52.5
2018-09-01T01:44:06.599Z,52.5
2018-09-01T01:44:56.937Z,52.5
2018-09-01T01:45:47.580Z,52.5
2018-09-01T01:46:37.374Z,52.4
2018-09-01T01:47:27.175Z,52.5
2018-09-01T01:48:17.757Z,52.4
2018-09-01T01:49:06.738Z,52.4
2018-09-01T01:49:57.055Z,52.4
2018-09-01T01:50:47.975Z,52.4
2018-09-01T01:51:37.759Z,52.4
2018-09-01T01:52:26.989Z,52.4
2018-09-01T01:53:17.890Z,52.4
2018-09-01T01:54:07.686Z,52.4
2018-09-01T01:54:58.022Z,52.4
2018-09-01T01:55:48.399Z,52.4
2018-09-01T01:56:37.852Z,52.4
2018-09-01T01:57:28.200Z,52.4
2018-09-01T01:58:17.427Z,52.4
2018-09-01T01:59:08.349Z,52.4
2018-09-01T02:00:48.457Z,52.4
2018-09-01T02:03:18.957Z,52.4
2018-09-01T02:14:09.610Z,52.3
2018-09-01T02:14:59.594Z,52.3
2018-09-01T02:15:49.354Z,52.3
2018-09-01T02:16:39.128Z,52.3
2018-09-01T02:17:29.456Z,52.3
2018-09-01T02:18:19.263Z,52.3
2018-09-01T02:19:10.183Z,52.3
2018-09-01T02:19:59.993Z,52.3
2018-09-01T02:20:49.445Z,52.3
2018-09-01T02:21:40.338Z,52.3
2018-09-01T02:22:29.855Z,52.3
2018-09-01T02:23:20.210Z,52.3
2018-09-01T02:24:10.288Z,52.3
2018-09-01T02:25:00.325Z,52.3
2018-09-01T02:25:50.124Z,52.3
2018-09-01T02:26:40.482Z,52.3
2018-09-01T02:27:30.283Z,52.3
2018-09-01T02:28:20.955Z,52.3
2018-09-01T02:29:10.115Z,52.3
2018-09-01T02:30:00.242Z,52.3
2018-09-01T02:30:50.300Z,52.3
2018-09-01T02:31:40.377Z,52.3
2018-09-01T02:32:30.477Z,52.3
2018-09-01T02:33:20.732Z,52.3
2018-09-01T02:34:10.805Z,52.3
2018-09-01T02:35:01.352Z,52.2
2018-09-01T02:35:51.175Z,52.2
2018-09-01T02:36:40.997Z,52.3
2018-09-01T02:37:31.617Z,52.2
2018-09-01T02:38:21.104Z,52.2
2018-09-01T02:39:10.845Z,52.2
2018-09-01T02:40:01.764Z,52.2
2018-09-01T02:40:51.004Z,52.2
2018-09-01T02:41:41.639Z,52.2
2018-09-01T02:42:30.848Z,52.2
2018-09-01T02:43:21.801Z,52.2
2018-09-01T02:44:11.833Z,52.1
2018-09-01T02:45:01.862Z,52.2
2018-09-01T02:45:51.679Z,52.2
2018-09-01T02:46:42.333Z,52.2
2018-09-01T02:47:31.496Z,52.1
2018-09-01T02:48:21.589Z,52.1
2018-09-01T02:49:11.922Z,52.1
2018-09-01T02:50:02.567Z,52.1
2018-09-01T02:50:52.076Z,52.1
2018-09-01T02:51:42.330Z,52.1
2018-09-01T02:52:32.465Z,52.1
2018-09-01T02:53:22.555Z,52.1
2018-09-01T02:54:12.286Z,52.1
2018-09-01T02:55:02.676Z,52.1
2018-09-01T02:55:53.013Z,52.1
2018-09-01T02:56:42.492Z,52.1
2018-09-01T02:57:32.851Z,52.1
2018-09-01T02:58:22.363Z,52.1
2018-09-01T02:59:13.250Z,52.1
2018-09-01T03:00:03.385Z,52.1
2018-09-01T03:00:53.676Z,52.1
2018-09-01T03:01:42.630Z,52.1
2018-09-01T03:02:32.953Z,52.1
2018-09-01T03:03:22.731Z,52.1
2018-09-01T03:04:13.353Z,52.1
2018-09-01T03:05:03.943Z,52.1
2018-09-01T03:05:53.172Z,52.1
2018-09-01T03:06:43.820Z,52.1
2018-09-01T03:07:33.089Z,52.1
2018-09-01T03:08:23.513Z,52.1
2018-09-01T03:09:13.770Z,52
2018-09-01T03:10:04.092Z,52.1
2018-09-01T03:10:54.644Z,52
2018-09-01T03:11:44.259Z,52
2018-09-01T03:12:34.065Z,52
2018-09-01T03:13:23.584Z,52
2018-09-01T03:14:13.665Z,52
2018-09-01T03:15:04.197Z,52
2018-09-01T03:15:54.769Z,52
2018-09-01T03:16:44.334Z,52
2018-09-01T03:17:34.386Z,52
2018-09-01T03:18:24.177Z,52
2018-09-01T03:19:14.542Z,52
2018-09-01T03:20:04.896Z,52
2018-09-01T03:20:54.901Z,52
2018-09-01T03:21:44.726Z,52
2018-09-01T03:35:05.495Z,51.9
2018-09-01T03:35:56.672Z,51.9
2018-09-01T03:36:45.872Z,51.9
2018-09-01T03:37:36.235Z,51.9
2018-09-01T03:38:26.288Z,51.9
2018-09-01T03:39:15.240Z,51.9
2018-09-01T03:40:05.886Z,51.9
2018-09-01T03:40:56.236Z,51.9
2018-09-01T03:41:46.560Z,51.9
2018-09-01T03:42:36.020Z,51.9
2018-09-01T03:43:25.810Z,51.8
2018-09-01T03:44:15.895Z,51.9
2018-09-01T03:45:05.960Z,51.8
2018-09-01T03:45:56.010Z,51.8
2018-09-01T03:46:46.977Z,51.8
2018-09-01T03:47:36.445Z,51.8
2018-09-01T03:48:26.798Z,51.8
2018-09-01T03:49:16.833Z,51.8
2018-09-01T03:50:06.940Z,51.8
2018-09-01T03:50:56.696Z,51.8
2018-09-01T03:51:47.052Z,51.8
2018-09-01T03:52:36.823Z,51.8
2018-09-01T03:53:27.196Z,51.8
2018-09-01T03:54:16.962Z,51.8
2018-09-01T03:55:07.310Z,51.8
2018-09-01T03:55:57.366Z,51.8
2018-09-01T03:56:47.452Z,51.8
2018-09-01T03:57:37.492Z,51.8
2018-09-01T03:58:27.814Z,51.8
2018-09-01T03:59:17.339Z,51.8
2018-09-01T04:00:07.716Z,51.8
2018-09-01T04:00:57.761Z,51.8
2018-09-01T04:01:47.765Z,51.8
2018-09-01T04:02:37.904Z,51.8
2018-09-01T04:03:28.207Z,51.8
2018-09-01T04:04:17.735Z,51.8
2018-09-01T04:05:08.364Z,51.7
2018-09-01T04:05:58.389Z,51.7
2018-09-01T04:06:48.449Z,51.7
2018-09-01T04:07:38.537Z,51.8
2018-09-01T04:08:28.661Z,51.7
2018-09-01T04:09:18.669Z,51.7
2018-09-01T04:10:08.739Z,51.7
2018-09-01T04:10:58.006Z,51.7
2018-09-01T04:11:48.298Z,51.7
2018-09-01T04:12:38.631Z,51.7
2018-09-01T04:13:28.149Z,51.7
2018-09-01T04:14:19.308Z,51.7
2018-09-01T04:15:08.543Z,51.7
2018-09-01T04:15:58.861Z,51.7
2018-09-01T04:16:48.949Z,51.7
2018-09-01T04:17:39.594Z,51.6
2018-09-01T04:18:28.824Z,51.6
2018-09-01T04:19:19.171Z,51.6
2018-09-01T04:20:09.494Z,51.6
2018-09-01T04:20:59.273Z,51.6
2018-09-01T04:21:49.376Z,51.6
2018-09-01T04:22:39.733Z,51.6
2018-09-01T04:23:29.213Z,51.6
2018-09-01T04:24:19.248Z,51.6
2018-09-01T04:25:09.615Z,51.6
2018-09-01T04:25:59.665Z,51.6
2018-09-01T04:26:50.280Z,51.6
2018-09-01T04:27:39.818Z,51.6
2018-09-01T04:28:30.113Z,51.6
2018-09-01T04:29:19.971Z,51.6
2018-09-01T04:30:10.000Z,51.6
2018-09-01T04:31:00.320Z,51.6
2018-09-01T04:31:50.196Z,51.6
2018-09-01T04:32:40.470Z,51.6
2018-09-01T04:33:30.197Z,51.6
2018-09-01T04:34:20.033Z,51.6
2018-09-01T04:35:10.669Z,51.6
2018-09-01T04:36:00.443Z,51.6
2018-09-01T04:36:51.040Z,51.6
2018-09-01T04:37:40.585Z,51.6
2018-09-01T04:38:30.582Z,51.5
2018-09-01T04:39:20.702Z,51.5
2018-09-01T04:40:10.745Z,51.6
2018-09-01T04:41:00.274Z,51.5
2018-09-01T04:41:51.686Z,51.5
2018-09-01T04:42:40.352Z,51.5
2018-09-01T05:00:17.882Z,51.4
2018-09-01T05:01:10.680Z,51.4
2018-09-01T05:01:58.331Z,51.4
2018-09-01T05:02:48.710Z,51.4
2018-09-01T05:03:37.943Z,51.4
2018-09-01T05:04:28.849Z,51.4
2018-09-01T05:05:17.729Z,51.4
2018-09-01T05:06:09.181Z,51.4
2018-09-01T05:06:58.256Z,51.4
2018-09-01T05:07:48.776Z,51.4
2018-09-01T05:08:37.975Z,51.4
2018-09-01T05:09:28.929Z,51.4
2018-09-01T05:10:18.930Z,51.3
2018-09-01T05:11:09.305Z,51.3
2018-09-01T05:11:59.080Z,51.4
2018-09-01T05:12:49.140Z,51.4
2018-09-01T05:13:39.099Z,51.3
2018-09-01T05:14:29.841Z,51.3
2018-09-01T05:15:19.589Z,51.3
2018-09-01T05:16:09.178Z,51.3
2018-09-01T05:16:58.938Z,51.3
2018-09-01T05:17:49.797Z,51.3
2018-09-01T05:18:39.650Z,51.3
2018-09-01T05:19:30.208Z,51.3
2018-09-01T05:20:19.434Z,51.3
2018-09-01T05:21:09.212Z,51.3
2018-09-01T05:21:59.843Z,51.3
2018-09-01T05:22:50.190Z,51.3
2018-09-01T05:23:40.252Z,51.3
2018-09-01T05:24:30.359Z,51.3
2018-09-01T05:25:20.175Z,51.3
2018-09-01T05:26:10.205Z,51.3
2018-09-01T05:27:00.234Z,51.3
2018-09-01T05:27:50.558Z,51.3
2018-09-01T05:28:40.377Z,51.3
2018-09-01T05:29:30.804Z,51.3
2018-09-01T05:30:20.513Z,51.3
2018-09-01T05:31:10.827Z,51.3
2018-09-01T05:32:00.632Z,51.3
2018-09-01T05:32:50.279Z,51.2
2018-09-01T05:33:40.805Z,51.3
2018-09-01T05:34:30.632Z,51.2
2018-09-01T05:35:20.313Z,51.2
2018-09-01T05:36:11.024Z,51.2
2018-09-01T05:37:01.058Z,51.2
2018-09-01T05:37:51.144Z,51.2
2018-09-01T05:38:40.888Z,51.2
2018-09-01T05:39:31.512Z,51.2
2018-09-01T05:40:21.022Z,51.2
2018-09-01T05:41:11.291Z,51.2
2018-09-01T05:42:01.094Z,51.2
2018-09-01T05:42:51.524Z,51.2
2018-09-01T05:43:42.102Z,51.2
2018-09-01T05:44:31.616Z,51.1
2018-09-01T05:45:21.963Z,51.1
2018-09-01T05:46:11.764Z,51.1
2018-09-01T05:47:02.082Z,51.1
2018-09-01T05:47:51.859Z,51.1
2018-09-01T05:48:41.690Z,51.1
2018-09-01T05:49:31.274Z,51.1
2018-09-01T05:50:22.442Z,51.1
2018-09-01T05:51:12.201Z,51.1
2018-09-01T05:52:02.738Z,51.1
2018-09-01T05:52:52.276Z,51.1
2018-09-01T05:53:42.325Z,51.1
2018-09-01T05:54:32.409Z,51.1
2018-09-01T05:55:22.184Z,51.1
2018-09-01T05:56:11.976Z,51.1
2018-09-01T05:57:02.270Z,51.1
2018-09-01T05:57:52.923Z,51.1
2018-09-01T05:58:42.431Z,51.1
2018-09-01T05:59:33.341Z,51.1
2018-09-01T06:00:22.747Z,51.1
2018-09-01T06:01:12.697Z,51.1
2018-09-01T06:02:03.533Z,51.1
2018-09-01T06:02:53.597Z,51.1
2018-09-01T06:03:42.549Z,51
2018-09-01T06:04:32.866Z,51
2018-09-01T06:05:23.207Z,51
2018-09-01T06:06:15.244Z,51
2018-09-01T06:07:03.710Z,51
2018-09-01T06:07:53.429Z,51
2018-09-01T06:08:43.767Z,51
2018-09-01T06:09:34.110Z,51
2018-09-01T06:10:23.583Z,51
2018-09-01T06:11:13.933Z,51
2018-09-01T06:12:03.697Z,51
2018-09-01T06:12:54.271Z,51
2018-09-01T06:13:43.572Z,50.9
2018-09-01T06:14:33.916Z,50.9
2018-09-01T06:15:23.986Z,50.9
2018-09-01T06:16:13.612Z,51
2018-09-01T06:17:04.159Z,50.9
2018-09-01T06:17:55.462Z,50.9
2018-09-01T06:18:44.553Z,50.9
2018-09-01T06:19:33.814Z,50.9
2018-09-01T06:20:24.081Z,50.9
2018-09-01T06:21:14.169Z,50.9
2018-09-01T06:22:04.786Z,50.9
2018-09-01T06:22:55.079Z,50.9
2018-09-01T06:23:44.997Z,50.9
2018-09-01T06:24:34.716Z,50.9
2018-09-01T06:25:24.820Z,50.9
2018-09-01T06:26:14.823Z,50.9
2018-09-01T06:27:04.924Z,50.9
2018-09-01T06:27:55.268Z,50.9
2018-09-01T06:28:44.993Z,50.9
2018-09-01T06:29:35.394Z,50.9
2018-09-01T06:30:25.481Z,50.9
2018-09-01T06:31:15.450Z,50.9
2018-09-01T06:32:05.584Z,50.9
2018-09-01T06:32:55.907Z,50.8
2018-09-01T06:33:45.694Z,50.9
2018-09-01T06:34:35.243Z,50.8
2018-09-01T06:35:24.995Z,50.9
2018-09-01T06:36:15.653Z,50.8
2018-09-01T06:37:05.216Z,50.8
2018-09-01T06:37:56.035Z,50.8
2018-09-01T06:38:45.813Z,50.8
2018-09-01T06:39:35.920Z,50.8
2018-09-01T06:40:25.757Z,50.8
2018-09-01T06:41:15.466Z,50.8
2018-09-01T06:42:05.616Z,50.8
2018-09-01T06:42:56.793Z,50.8
2018-09-01T06:43:46.698Z,50.8
2018-09-01T06:44:36.234Z,50.8
2018-09-01T06:45:26.585Z,50.8
2018-09-01T06:46:15.805Z,50.8
2018-09-01T06:47:06.706Z,50.8
2018-09-01T06:47:56.237Z,50.8
2018-09-01T06:48:46.517Z,50.8
2018-09-01T06:49:36.634Z,50.8
2018-09-01T06:50:26.643Z,50.8
2018-09-01T06:51:16.737Z,50.8
2018-09-01T06:52:06.831Z,50.8
2018-09-01T06:52:56.592Z,50.8
2018-09-01T06:53:46.647Z,50.8
2018-09-01T06:54:37.084Z,50.8
2018-09-01T06:55:26.545Z,50.7
2018-09-01T06:56:16.862Z,50.6
2018-09-01T06:57:07.507Z,50.5
2018-09-01T06:57:57.226Z,50.4
2018-09-01T06:58:47.588Z,50.4
2018-09-01T06:59:37.114Z,50.4
2018-09-01T07:00:27.172Z,50.3
2018-09-01T07:01:17.834Z,50.3
2018-09-01T07:02:07.606Z,50.3
2018-09-01T07:02:57.379Z,50.3
2018-09-01T07:03:47.977Z,50.3
2018-09-01T07:04:37.809Z,50.3
2018-09-01T07:05:26.988Z,50.3
2018-09-01T07:06:17.941Z,50.3
2018-09-01T07:07:08.255Z,50.3
2018-09-01T07:07:57.466Z,50.3
2018-09-01T07:08:49.035Z,50.3
2018-09-01T07:09:38.116Z,50.3
2018-09-01T07:10:28.030Z,50.2
2018-09-01T07:11:18.288Z,50.2
2018-09-01T07:12:07.793Z,50.2
2018-09-01T07:12:58.191Z,50.2
2018-09-01T07:13:48.809Z,50.2
2018-09-01T07:14:38.850Z,50.2
2018-09-01T07:15:28.613Z,50.1
2018-09-01T07:16:18.685Z,50.1
2018-09-01T07:17:07.698Z,50.1
2018-09-01T07:17:58.826Z,50.1
2018-09-01T07:18:48.627Z,50.1
2018-09-01T07:19:38.935Z,50.1
2018-09-01T07:20:28.952Z,50.1
2018-09-01T07:21:19.353Z,50.1
2018-09-01T07:22:09.167Z,50.1
2018-09-01T07:22:59.237Z,50.1
2018-09-01T07:23:48.990Z,50.1
2018-09-01T07:24:39.602Z,50.1
2018-09-01T07:25:29.646Z,50.1
2018-09-01T07:26:19.486Z,50.1
2018-09-01T07:27:09.259Z,50.1
2018-09-01T07:27:59.290Z,50
2018-09-01T07:28:49.927Z,50.1
2018-09-01T07:29:39.991Z,50.1
2018-09-01T07:30:32.085Z,50.1
2018-09-01T07:31:23.391Z,50.1
2018-09-01T07:32:10.491Z,50.1
2018-09-01T07:33:00.062Z,50.2
2018-09-01T07:33:50.165Z,50.2
2018-09-01T07:34:39.849Z,50.3
2018-09-01T07:35:30.790Z,50.3
2018-09-01T07:36:19.778Z,50.3
2018-09-01T07:37:10.599Z,50.3
2018-09-01T07:38:00.354Z,50.4
2018-09-01T07:38:50.746Z,50.4
2018-09-01T07:39:40.232Z,50.4
2018-09-01T07:40:31.077Z,50.4
2018-09-01T07:41:20.618Z,50.5
2018-09-01T07:42:10.421Z,50.6
2018-09-01T07:43:00.281Z,50.6
2018-09-01T07:43:49.786Z,50.6
2018-09-01T07:44:40.593Z,50.6
2018-09-01T07:45:30.949Z,50.7
2018-09-01T07:46:20.504Z,50.8
2018-09-01T07:47:10.944Z,50.8
2018-09-01T07:48:01.145Z,50.8
2018-09-01T07:48:51.220Z,50.9
2018-09-01T07:49:41.302Z,50.9
2018-09-01T07:50:31.639Z,50.9
2018-09-01T07:51:21.455Z,51
2018-09-01T07:52:11.223Z,51
2018-09-01T07:53:01.786Z,51.1
2018-09-01T07:53:51.324Z,51.1
2018-09-01T07:54:42.233Z,51.1
2018-09-01T07:55:31.739Z,51.2
2018-09-01T07:56:22.764Z,51.3
2018-09-01T07:57:11.937Z,51.3
2018-09-01T07:58:01.925Z,51.3
2018-09-01T07:58:51.508Z,51.4
2018-09-01T07:59:42.298Z,51.4
2018-09-01T08:00:32.431Z,51.4
2018-09-01T08:01:22.210Z,51.5
2018-09-01T08:02:12.280Z,51.6
2018-09-01T08:03:01.497Z,51.6
2018-09-01T08:03:52.963Z,51.6
2018-09-01T08:04:42.011Z,51.7
2018-09-01T08:05:32.820Z,51.8
2018-09-01T08:06:22.897Z,51.8
2018-09-01T08:07:12.895Z,51.8
2018-09-01T08:08:03.003Z,51.9
2018-09-01T08:09:42.847Z,52
2018-09-01T08:10:32.617Z,52.1
2018-09-01T08:11:22.999Z,52.1
2018-09-01T08:12:13.066Z,52.1
2018-09-01T08:13:03.187Z,52.2
2018-09-01T08:13:54.925Z,52.3
2018-09-01T08:14:44.938Z,52.3
2018-09-01T08:16:25.035Z,52.4
2018-09-01T08:17:13.226Z,52.4
2018-09-01T08:18:03.515Z,52.5
2018-09-01T08:18:53.095Z,52.6
2018-09-01T08:19:43.874Z,52.6
2018-09-01T08:20:33.133Z,52.7
2018-09-01T08:21:23.788Z,52.8
2018-09-01T08:22:12.751Z,52.8
2018-09-01T08:23:03.596Z,52.8
2018-09-01T08:23:54.234Z,52.9
2018-09-01T08:24:44.050Z,52.9
2018-09-01T08:25:34.108Z,53
2018-09-01T08:26:23.903Z,53.1
2018-09-01T08:27:13.948Z,53.1
2018-09-01T08:28:04.578Z,53.1
2018-09-01T08:28:54.625Z,53.2
2018-09-01T08:29:44.123Z,53.3
2018-09-01T08:30:34.020Z,53.3
2018-09-01T08:31:23.760Z,53.4
2018-09-01T08:32:14.140Z,53.4
2018-09-01T08:33:04.381Z,53.4
2018-09-01T08:33:55.182Z,53.5
2018-09-01T08:34:45.113Z,53.6
2018-09-01T08:35:34.882Z,53.6
2018-09-01T08:36:24.643Z,53.7
2018-09-01T08:37:14.242Z,53.8
2018-09-01T08:38:05.050Z,53.8
2018-09-01T08:38:55.142Z,53.8
2018-09-01T08:39:44.887Z,53.9
2018-09-01T08:40:34.693Z,53.9
2018-09-01T08:41:25.304Z,54
2018-09-01T08:42:15.691Z,54.1
2018-09-01T08:43:05.206Z,54.1
2018-09-01T08:43:55.229Z,54.2
2018-09-01T08:44:45.662Z,54.2
2018-09-01T08:45:35.387Z,54.3
2018-09-01T08:46:25.442Z,54.3
2018-09-01T08:47:15.534Z,54.4
2018-09-01T08:48:06.119Z,54.4
2018-09-01T08:48:55.927Z,54.4
2018-09-01T08:49:45.992Z,54.6
2018-09-01T08:50:36.589Z,54.6
2018-09-01T08:51:26.113Z,54.6
2018-09-01T08:52:16.174Z,54.7
2018-09-01T08:53:06.223Z,54.8
2018-09-01T08:53:56.599Z,54.8
2018-09-01T08:54:45.885Z,54.8
2018-09-01T08:55:36.141Z,54.9
2018-09-01T08:56:26.568Z,54.9
2018-09-01T08:57:16.281Z,55
2018-09-01T08:58:06.941Z,55.1
2018-09-01T09:14:51.645Z,56
2018-09-01T09:15:55.090Z,56.1
2018-09-01T09:16:29.690Z,56.1
2018-09-01T09:17:20.323Z,56.2
2018-09-01T09:18:10.866Z,56.2
2018-09-01T09:19:01.007Z,56.3
2018-09-01T09:19:50.445Z,56.3
2018-09-01T09:20:41.685Z,56.4
2018-09-01T09:21:31.657Z,56.4
2018-09-01T09:22:20.969Z,56.5
2018-09-01T09:23:26.330Z,56.5
2018-09-01T09:24:02.487Z,56.6
2018-09-01T09:24:51.381Z,56.6
2018-09-01T09:25:41.460Z,56.7
2018-09-01T09:26:31.439Z,56.8
2018-09-01T09:27:22.029Z,56.8
2018-09-01T09:28:11.074Z,56.8
2018-09-01T09:29:01.396Z,56.9
2018-09-01T09:30:06.857Z,56.9
2018-09-01T09:30:42.716Z,57
2018-09-01T09:31:31.788Z,57.1
2018-09-01T09:32:22.321Z,57.1
2018-09-01T09:33:11.549Z,57.1
2018-09-01T09:34:02.227Z,57.2
2018-09-01T09:35:06.754Z,57.3
2018-09-01T09:35:56.661Z,57.3
2018-09-01T09:36:47.459Z,57.4
2018-09-01T09:37:22.632Z,57.4
2018-09-01T09:39:02.001Z,57.5
2018-09-01T09:39:52.901Z,57.6
2018-09-01T09:40:43.106Z,57.6
2018-09-01T09:41:47.519Z,57.6
2018-09-01T09:42:23.471Z,57.7
2018-09-01T09:44:02.686Z,57.8
2018-09-01T09:44:52.707Z,57.9
2018-09-01T09:45:43.263Z,57.9
2018-09-01T09:46:47.470Z,57.9
2018-09-01T09:47:23.178Z,58
2018-09-01T09:48:27.385Z,58.1
2018-09-01T09:49:03.323Z,58.1
2018-09-01T09:49:52.667Z,58.2
2018-09-01T09:50:57.827Z,58.2
2018-09-01T09:51:33.247Z,58.3
2018-09-01T09:52:38.727Z,58.3
2018-09-01T09:53:13.553Z,58.4
2018-09-01T09:54:03.462Z,58.4
2018-09-01T09:54:53.523Z,58.4
2018-09-01T09:55:43.827Z,58.5
2018-09-01T09:57:23.418Z,58.6
2018-09-01T09:58:28.980Z,58.6
2018-09-01T09:59:03.845Z,58.8
2018-09-01T09:59:54.179Z,58.8
2018-09-01T10:00:43.904Z,58.8
2018-09-01T10:01:34.563Z,58.8
2018-09-01T10:02:24.618Z,58.9
2018-09-01T10:03:14.614Z,58.9
2018-09-01T10:04:04.487Z,59
2018-09-01T10:04:54.818Z,59.1
2018-09-01T10:05:44.910Z,59.1
2018-09-01T10:06:49.722Z,59.1
2018-09-01T10:07:24.157Z,59.3
2018-09-01T10:08:14.759Z,59.3
2018-09-01T10:09:04.949Z,59.3
2018-09-01T10:10:08.716Z,59.4
2018-09-01T10:10:44.499Z,59.4
2018-09-01T10:11:35.087Z,59.4
2018-09-01T10:12:25.195Z,59.5
2018-09-01T10:13:15.491Z,59.6
2018-09-01T10:14:05.034Z,59.6
2018-09-01T10:14:55.091Z,59.6
2018-09-01T10:15:45.804Z,59.8
2018-09-01T10:16:34.919Z,59.8
2018-09-01T10:17:25.851Z,59.8
2018-09-01T10:18:14.609Z,59.9
2018-09-01T10:19:05.427Z,59.9
2018-09-01T10:19:55.349Z,60
2018-09-01T10:20:46.032Z,60
2018-09-01T10:21:36.113Z,60.1
2018-09-01T10:23:15.732Z,60.2
2018-09-01T10:24:20.172Z,60.2
2018-09-01T10:25:11.034Z,60.3
2018-09-01T10:25:46.414Z,60.3
2018-09-01T10:26:51.082Z,60.4
2018-09-01T10:27:25.778Z,60.4
2018-09-01T10:28:16.313Z,60.4
2018-09-01T10:29:20.786Z,60.5
2018-09-01T10:29:56.800Z,60.6
2018-09-01T10:31:01.687Z,60.6
2018-09-01T10:31:36.858Z,60.7
2018-09-01T10:32:25.876Z,60.7
2018-09-01T10:33:16.807Z,60.8
2018-09-01T10:34:07.714Z,60.8
2018-09-01T10:34:56.462Z,60.8
2018-09-01T10:35:47.150Z,60.9
2018-09-01T10:36:37.255Z,60.9
2018-09-01T10:37:41.906Z,60.9
2018-09-01T10:38:32.540Z,61.1
2018-09-01T10:39:07.219Z,61.1
2018-09-01T10:39:57.550Z,61.1
2018-09-01T10:40:46.563Z,61.2
2018-09-01T10:41:37.158Z,61.2
2018-09-01T10:42:27.832Z,61.3
2018-09-01T10:43:18.854Z,61.3
2018-09-01T10:44:22.913Z,61.3
2018-09-01T10:45:12.357Z,61.4
2018-09-01T10:46:37.831Z,61.5
2018-09-01T10:47:27.904Z,61.5
2018-09-01T10:49:07.770Z,61.6
2018-09-01T10:49:58.365Z,61.7
2018-09-01T10:50:48.158Z,61.7
2018-09-01T10:51:52.883Z,61.8
2018-09-01T10:52:44.047Z,61.8
2018-09-01T10:53:18.357Z,61.9
2018-09-01T10:54:08.629Z,61.9
2018-09-01T10:54:58.946Z,61.9
2018-09-01T10:55:47.998Z,62
2018-09-01T10:56:38.566Z,62.1
2018-09-01T10:57:43.489Z,62.1
2018-09-01T10:58:19.151Z,62.1
2018-09-01T10:59:11.830Z,62.1
2018-09-01T10:59:59.053Z,62.2
2018-09-01T11:00:48.854Z,62.3
2018-09-01T11:01:53.849Z,62.3
2018-09-01T11:03:00.740Z,62.3
2018-09-01T11:03:18.833Z,62.4
2018-09-01T11:04:24.508Z,62.4
2018-09-01T11:04:59.221Z,62.5
2018-09-01T11:05:49.391Z,62.5
2018-09-01T11:06:54.064Z,62.6
2018-09-01T11:07:29.466Z,62.6
2018-09-01T11:08:19.544Z,62.6
2018-09-01T11:09:23.655Z,62.7
2018-09-01T11:09:59.403Z,62.8
2018-09-01T11:10:49.826Z,62.8
2018-09-01T11:11:39.247Z,62.8
2018-09-01T11:12:29.009Z,62.9
2018-09-01T11:13:19.444Z,62.9
2018-09-01T11:14:10.187Z,62.9
2018-09-01T11:14:59.186Z,63
2018-09-01T11:15:49.911Z,63.1
2018-09-01T11:16:39.740Z,63.1
2018-09-01T11:17:29.814Z,63.1
2018-09-01T11:18:20.384Z,63.1
2018-09-01T11:19:10.592Z,63.2
2018-09-01T11:20:00.815Z,63.3
2018-09-01T11:21:06.425Z,63.3
2018-09-01T11:21:41.424Z,63.4
2018-09-01T11:22:30.799Z,63.4
2018-09-01T11:23:34.851Z,63.4
2018-09-01T11:24:15.410Z,63.4
2018-09-01T11:25:06.175Z,63.5
2018-09-01T11:25:55.707Z,63.5
2018-09-01T11:26:45.518Z,63.6
2018-09-01T11:27:36.272Z,63.6
2018-09-01T11:28:26.144Z,63.6
2018-09-01T11:29:15.903Z,63.7
2018-09-01T11:30:05.543Z,63.8
2018-09-01T11:30:55.273Z,63.8
2018-09-01T11:32:01.031Z,63.8
2018-09-01T11:32:35.670Z,63.8
2018-09-01T11:33:41.734Z,63.9
2018-09-01T11:34:16.380Z,63.9
2018-09-01T11:35:21.740Z,63.9
2018-09-01T11:35:56.286Z,64
2018-09-01T11:36:46.573Z,64
2018-09-01T11:37:36.585Z,64.1
2018-09-01T11:38:26.652Z,64.1
2018-09-01T11:39:16.957Z,64.1
2018-09-01T11:40:21.370Z,64.1
2018-09-01T11:40:56.510Z,64.2
2018-09-01T11:41:47.133Z,64.3
2018-09-01T11:42:37.577Z,64.3
2018-09-01T11:43:26.617Z,64.3
2018-09-01T11:45:06.664Z,64.4
2018-09-01T11:46:11.417Z,64.4
2018-09-01T11:47:01.685Z,64.4
2018-09-01T11:47:36.652Z,64.5
2018-09-01T11:48:27.565Z,64.5
2018-09-01T11:49:17.711Z,64.6
2018-09-01T11:50:07.903Z,64.6
2018-09-01T11:50:58.152Z,64.6
2018-09-01T11:51:47.500Z,64.6
2018-09-01T11:52:38.000Z,64.7
2018-09-01T11:53:42.623Z,64.7
2018-09-01T11:54:32.272Z,64.8
2018-09-01T11:55:07.729Z,64.8
2018-09-01T11:55:57.477Z,64.8
2018-09-01T11:56:47.862Z,64.9
2018-09-01T11:57:37.924Z,64.9
2018-09-01T11:58:28.108Z,64.9
2018-09-01T11:59:32.727Z,64.9
2018-09-01T12:00:07.904Z,65
2018-09-01T12:01:13.140Z,65
2018-09-01T12:01:49.325Z,65.1
2018-09-01T12:02:39.024Z,65.1
2018-09-01T12:03:43.436Z,65.1
2018-09-01T12:04:32.806Z,65.1
2018-09-01T12:05:08.530Z,65.2
2018-09-01T12:05:58.592Z,65.2
2018-09-01T12:07:02.723Z,65.2
2018-09-01T12:07:38.481Z,65.3
2018-09-01T12:08:29.031Z,65.3
2018-09-01T12:09:33.850Z,65.3
2018-09-01T12:10:08.904Z,65.3
2018-09-01T12:10:58.925Z,65.4
2018-09-01T12:11:48.577Z,65.4
2018-09-01T12:12:39.611Z,65.4
2018-09-01T12:13:43.714Z,65.4
2018-09-01T12:14:18.447Z,65.5
2018-09-01T12:15:09.313Z,65.5
2018-09-01T12:16:00.049Z,65.5
2018-09-01T12:16:49.137Z,65.6
2018-09-01T12:17:39.320Z,65.6
2018-09-01T12:18:28.822Z,65.6
2018-09-01T12:19:19.152Z,65.6
2018-09-01T12:20:09.901Z,65.6
2018-09-01T12:20:59.527Z,65.6
2018-09-01T12:21:49.817Z,65.7
2018-09-01T12:22:40.230Z,65.7
2018-09-01T12:23:44.317Z,65.8
2018-09-01T12:24:20.019Z,65.8
2018-09-01T12:25:10.119Z,65.8
2018-09-01T12:25:59.929Z,65.8
2018-09-01T12:26:50.002Z,65.8
2018-09-01T12:27:40.713Z,65.8
2018-09-01T12:28:30.837Z,65.9
2018-09-01T12:29:34.891Z,65.9
2018-09-01T12:30:10.773Z,65.9
2018-09-01T12:31:00.234Z,65.9
2018-09-01T12:31:50.374Z,65.9
2018-09-01T12:32:40.707Z,65.9
2018-09-01T12:33:31.434Z,65.9